MOL Paramount — 3ECH9 — position and weather

sailwx.info

Track history (hours):
 
Tides and Currents Weather Stations Pressure Air Temp Water Temp Dewpoint Dewpoint Depression Visibility Wind Speed Wind Dir Waves Ship Positions

MOL Paramount

Last reported at 2015-Aug-18 23:27 UTC. Time now 2015-Sep-04 07:50 UTC.
Position N 03°17' E 100°29'.
Warning: this ship's position is 16 days out of date.

Length 293 m; draft 11.7 m.

Type: Cargo ship. MMSI: 371519000.

Date/timePositionNaut miles runAvg speedWind from/ knotsBaromVisibWave heightAir tempDewpointWater temp
2015-Aug-18 23:27N 03°17' E 100°29'3417.8
2015-Aug-18 21:33N 02°55' E 100°54'3819.2
2015-Aug-18 19:33N 02°36' E 101°28'15518.5
2015-Aug-18 11:12N 01°11' E 103°37'1013.3
2015-Aug-18 10:29N 01°10' E 103°47'7 7.8
2015-Aug-18 09:33N 01°16' E 103°51'0 0.4
2015-Aug-18 08:31N 01°16' E 103°51'0 0.0
2015-Aug-18 07:31N 01°16' E 103°51'0 0.0
2015-Aug-18 06:31N 01°16' E 103°51'0 0.0
2015-Aug-18 05:31N 01°16' E 103°51'0 0.0
2015-Aug-18 04:31N 01°16' E 103°51'0 0.0
2015-Aug-18 04:07N 01°16' E 103°51'0 0.0
2015-Aug-18 03:25N 01°16' E 103°51'0 0.0
2015-Aug-18 02:31N 01°16' E 103°51'0 0.0
2015-Aug-18 01:31N 01°16' E 103°51'0 0.0
2015-Aug-18 00:33N 01°16' E 103°51'3 3.5
2015-Aug-17 23:33N 01°13' E 103°52'8 8.2
2015-Aug-17 22:33N 01°17' E 103°45'1 0.5
2015-Aug-17 21:32N 01°17' E 103°46'0 0.0
2015-Aug-17 20:32N 01°17' E 103°46'0 0.0
2015-Aug-17 19:32N 01°17' E 103°46'0 0.0
2015-Aug-17 18:26N 01°17' E 103°46'0 0.0
2015-Aug-17 17:32N 01°17' E 103°46'0 0.0
2015-Aug-17 16:32N 01°17' E 103°46'0 0.0
2015-Aug-17 15:32N 01°17' E 103°46'0 0.0
2015-Aug-17 14:32N 01°17' E 103°46'0 0.0
2015-Aug-17 13:32N 01°17' E 103°46'0 0.0
2015-Aug-17 12:32N 01°17' E 103°46'0 0.0
2015-Aug-17 11:32N 01°17' E 103°46'0 0.0
2015-Aug-17 10:32N 01°17' E 103°46'0 0.0
2015-Aug-17 09:32N 01°17' E 103°46'0 0.0
2015-Aug-17 08:32N 01°17' E 103°46'0 0.0
2015-Aug-17 07:32N 01°17' E 103°46'1 0.7
2015-Aug-17 06:33N 01°17' E 103°45'7 7.3
2015-Aug-17 05:32N 01°13' E 103°51'7 7.0
2015-Aug-17 04:33N 01°15' E 103°57'9 8.9
2015-Aug-17 03:33N 01°17' E 104°06'  
2015-Aug-13 04:30N 22°00' E 114°24'1413.3
2015-Aug-13 03:28N 22°09' E 114°13'1112.4
2015-Aug-13 02:34N 22°18' E 114°06'1111.1
2015-Aug-13 01:33N 22°22' E 113°54'7 7.2
2015-Aug-13 00:32N 22°29' E 113°52'1 0.2
2015-Aug-12 20:09N 22°29' E 113°52'5 8.8
2015-Aug-12 19:32N 22°23' E 113°54'11 9.0
2015-Aug-12 18:21N 22°20' E 114°05'3 3.4
2015-Aug-12 17:31N 22°20' E 114°08'0 0.0
2015-Aug-12 16:31N 22°20' E 114°08'0 0.0
2015-Aug-12 15:31N 22°20' E 114°08'0 0.0
2015-Aug-12 14:28N 22°20' E 114°08'0 0.0
2015-Aug-12 13:28N 22°20' E 114°08'0 0.0
2015-Aug-12 12:28N 22°20' E 114°08'0 0.0
2015-Aug-12 11:31N 22°20' E 114°08'0 0.0
2015-Aug-12 10:22N 22°20' E 114°08'0 0.0
2015-Aug-12 09:28N 22°20' E 114°08'0 0.0
2015-Aug-12 08:28N 22°20' E 114°08'0 0.0
2015-Aug-12 07:31N 22°20' E 114°08'0 0.0
2015-Aug-12 06:31N 22°20' E 114°08'0 0.0
2015-Aug-12 05:31N 22°20' E 114°08'3 3.6
2015-Aug-12 04:33N 22°16' E 114°07'1110.4
2015-Aug-12 03:31N 22°08' E 114°14'3 0.4
2015-Aug-11 20:27N 22°05' E 114°14'5 0.2
2015-Aug-11 00:31N 22°07' E 114°19'1212.6
2015-Aug-10 23:34N 22°16' E 114°28'2110.0
2015-Aug-10 21:26N 22°34' E 114°16'0 0.3
2015-Aug-10 19:32N 22°34' E 114°16'0 0.0
2015-Aug-10 18:32N 22°34' E 114°16'0 0.0
2015-Aug-10 17:32N 22°34' E 114°16'0 0.0
2015-Aug-10 16:32N 22°34' E 114°16'0 0.0
2015-Aug-10 15:32N 22°34' E 114°16'0 0.0
2015-Aug-10 14:26N 22°34' E 114°16'0 0.0
2015-Aug-10 12:32N 22°34' E 114°16'0 0.0
2015-Aug-10 11:20N 22°34' E 114°16'2 2.4
2015-Aug-10 10:34N 22°34' E 114°18'15 7.6
2015-Aug-10 08:33N 22°24' E 114°30'8 4.1
2015-Aug-10 06:32N 22°16' E 114°28'1514.9
2015-Aug-10 05:33N 22°06' E 114°15'  
Track history (hours):
 
Tides and Currents Weather Stations Pressure Air Temp Water Temp Dewpoint Dewpoint Depression Visibility Wind Speed Wind Dir Waves Ship Positions

MOL Paramount

Last reported at 2015-Aug-18 23:27 UTC. Time now 2015-Sep-04 07:50 UTC.
Position N 03°17' E 100°29'.
Warning: this ship's position is 16 days out of date.

Length 293 m; draft 11.7 m.

Type: Cargo ship. MMSI: 371519000.

Date/timePositionNaut miles runAvg speedWind from/ knotsBaromVisibWave heightAir tempDewpointWater temp
2015-Aug-18 23:27N 03°17' E 100°29'3417.8
2015-Aug-18 21:33N 02°55' E 100°54'3819.2
2015-Aug-18 19:33N 02°36' E 101°28'15518.5
2015-Aug-18 11:12N 01°11' E 103°37'1013.3
2015-Aug-18 10:29N 01°10' E 103°47'7 7.8
2015-Aug-18 09:33N 01°16' E 103°51'0 0.4
2015-Aug-18 08:31N 01°16' E 103°51'0 0.0
2015-Aug-18 07:31N 01°16' E 103°51'0 0.0
2015-Aug-18 06:31N 01°16' E 103°51'0 0.0
2015-Aug-18 05:31N 01°16' E 103°51'0 0.0
2015-Aug-18 04:31N 01°16' E 103°51'0 0.0
2015-Aug-18 04:07N 01°16' E 103°51'0 0.0
2015-Aug-18 03:25N 01°16' E 103°51'0 0.0
2015-Aug-18 02:31N 01°16' E 103°51'0 0.0
2015-Aug-18 01:31N 01°16' E 103°51'0 0.0
2015-Aug-18 00:33N 01°16' E 103°51'3 3.5
2015-Aug-17 23:33N 01°13' E 103°52'8 8.2
2015-Aug-17 22:33N 01°17' E 103°45'1 0.5
2015-Aug-17 21:32N 01°17' E 103°46'0 0.0
2015-Aug-17 20:32N 01°17' E 103°46'0 0.0
2015-Aug-17 19:32N 01°17' E 103°46'0 0.0
2015-Aug-17 18:26N 01°17' E 103°46'0 0.0
2015-Aug-17 17:32N 01°17' E 103°46'0 0.0
2015-Aug-17 16:32N 01°17' E 103°46'0 0.0
2015-Aug-17 15:32N 01°17' E 103°46'0 0.0
2015-Aug-17 14:32N 01°17' E 103°46'0 0.0
2015-Aug-17 13:32N 01°17' E 103°46'0 0.0
2015-Aug-17 12:32N 01°17' E 103°46'0 0.0
2015-Aug-17 11:32N 01°17' E 103°46'0 0.0
2015-Aug-17 10:32N 01°17' E 103°46'0 0.0
2015-Aug-17 09:32N 01°17' E 103°46'0 0.0
2015-Aug-17 08:32N 01°17' E 103°46'0 0.0
2015-Aug-17 07:32N 01°17' E 103°46'1 0.7
2015-Aug-17 06:33N 01°17' E 103°45'7 7.3
2015-Aug-17 05:32N 01°13' E 103°51'7 7.0
2015-Aug-17 04:33N 01°15' E 103°57'9 8.9
2015-Aug-17 03:33N 01°17' E 104°06'  
2015-Aug-13 04:30N 22°00' E 114°24'1413.3
2015-Aug-13 03:28N 22°09' E 114°13'1112.4
2015-Aug-13 02:34N 22°18' E 114°06'1111.1
2015-Aug-13 01:33N 22°22' E 113°54'7 7.2
2015-Aug-13 00:32N 22°29' E 113°52'1 0.2
2015-Aug-12 20:09N 22°29' E 113°52'5 8.8
2015-Aug-12 19:32N 22°23' E 113°54'11 9.0
2015-Aug-12 18:21N 22°20' E 114°05'3 3.4
2015-Aug-12 17:31N 22°20' E 114°08'0 0.0
2015-Aug-12 16:31N 22°20' E 114°08'0 0.0
2015-Aug-12 15:31N 22°20' E 114°08'0 0.0
2015-Aug-12 14:28N 22°20' E 114°08'0 0.0
2015-Aug-12 13:28N 22°20' E 114°08'0 0.0
2015-Aug-12 12:28N 22°20' E 114°08'0 0.0
2015-Aug-12 11:31N 22°20' E 114°08'0 0.0
2015-Aug-12 10:22N 22°20' E 114°08'0 0.0
2015-Aug-12 09:28N 22°20' E 114°08'0 0.0
2015-Aug-12 08:28N 22°20' E 114°08'0 0.0
2015-Aug-12 07:31N 22°20' E 114°08'0 0.0
2015-Aug-12 06:31N 22°20' E 114°08'0 0.0
2015-Aug-12 05:31N 22°20' E 114°08'3 3.6
2015-Aug-12 04:33N 22°16' E 114°07'1110.4
2015-Aug-12 03:31N 22°08' E 114°14'3 0.4
2015-Aug-11 20:27N 22°05' E 114°14'5 0.2
2015-Aug-11 00:31N 22°07' E 114°19'1212.6
2015-Aug-10 23:34N 22°16' E 114°28'2110.0
2015-Aug-10 21:26N 22°34' E 114°16'0 0.3
2015-Aug-10 19:32N 22°34' E 114°16'0 0.0
2015-Aug-10 18:32N 22°34' E 114°16'0 0.0
2015-Aug-10 17:32N 22°34' E 114°16'0 0.0
2015-Aug-10 16:32N 22°34' E 114°16'0 0.0
2015-Aug-10 15:32N 22°34' E 114°16'0 0.0
2015-Aug-10 14:26N 22°34' E 114°16'0 0.0
2015-Aug-10 12:32N 22°34' E 114°16'0 0.0
2015-Aug-10 11:20N 22°34' E 114°16'2 2.4
2015-Aug-10 10:34N 22°34' E 114°18'15 7.6
2015-Aug-10 08:33N 22°24' E 114°30'8 4.1
2015-Aug-10 06:32N 22°16' E 114°28'1514.9
2015-Aug-10 05:33N 22°06' E 114°15'  

Dump ship's entire track history